createdAt,value
2023-02-06T00:01:48.346Z,23.42
2023-02-06T00:04:15.094Z,24.67
2023-02-06T00:06:42.452Z,24.73
2023-02-06T00:09:10.014Z,25.02
2023-02-06T00:11:36.881Z,27.88
2023-02-06T00:14:03.600Z,27.02
2023-02-06T00:16:32.386Z,26.48
2023-02-06T00:19:00.371Z,30.20
2023-02-06T00:21:28.497Z,33.15
2023-02-06T00:23:57.320Z,32.03
2023-02-06T00:26:24.665Z,31.52
2023-02-06T00:28:51.810Z,31.35
2023-02-06T00:31:18.814Z,35.80
2023-02-06T00:33:45.331Z,35.88
2023-02-06T00:36:11.970Z,39.55
2023-02-06T00:38:38.453Z,38.33
2023-02-06T00:41:05.246Z,33.00
2023-02-06T00:43:31.837Z,43.58
2023-02-06T00:45:58.723Z,43.97
2023-02-06T00:48:25.887Z,43.22
2023-02-06T00:50:53.552Z,45.40
2023-02-06T00:53:20.458Z,43.53
2023-02-06T00:55:46.835Z,46.28
2023-02-06T00:58:13.290Z,44.65
2023-02-06T01:00:39.729Z,38.53
2023-02-06T01:03:06.267Z,47.28
2023-02-06T01:05:32.867Z,50.45
2023-02-06T01:07:59.333Z,48.38
2023-02-06T01:10:25.814Z,50.30
2023-02-06T01:12:52.227Z,60.40
2023-02-06T01:15:18.641Z,49.75
2023-02-06T01:17:45.175Z,57.97
2023-02-06T01:20:13.516Z,51.05
2023-02-06T01:22:40.545Z,54.83
2023-02-06T01:25:07.935Z,55.83
2023-02-06T01:27:38.359Z,62.40
2023-02-06T01:30:06.603Z,64.10
2023-02-06T01:35:02.098Z,46.72
2023-02-06T01:37:29.416Z,47.03
2023-02-06T01:39:55.839Z,52.72
2023-02-06T01:42:22.223Z,50.97
2023-02-06T01:44:48.633Z,52.95
2023-02-06T01:47:15.157Z,52.20
2023-02-06T01:49:46.086Z,48.00
2023-02-06T01:52:19.778Z,47.33
2023-02-06T01:54:51.166Z,44.47
2023-02-06T01:57:19.206Z,39.83
2023-02-06T01:59:49.907Z,47.13
2023-02-06T02:02:16.477Z,42.28
2023-02-06T02:04:44.563Z,47.92
2023-02-06T02:07:17.781Z,50.17
2023-02-06T02:09:44.224Z,54.85
2023-02-06T02:12:10.772Z,45.78
2023-02-06T02:14:39.837Z,54.92
2023-02-06T02:17:32.916Z,50.22
2023-02-06T02:20:23.325Z,51.63
2023-02-06T02:23:04.583Z,54.67
2023-02-06T02:25:52.683Z,54.67
2023-02-06T02:28:34.399Z,47.75
2023-02-06T02:33:46.906Z,53.22
2023-02-06T02:36:34.422Z,50.47
2023-02-06T02:39:07.309Z,50.97
2023-02-06T02:41:42.642Z,45.85
2023-02-06T02:44:12.557Z,62.33
2023-02-06T02:46:43.329Z,55.22
2023-02-06T02:49:15.694Z,60.53
2023-02-06T02:51:43.241Z,59.97
2023-02-06T02:54:10.135Z,59.97
2023-02-06T02:56:37.643Z,58.08
2023-02-06T02:59:09.284Z,67.38
2023-02-06T03:01:44.713Z,67.50
2023-02-06T03:04:17.968Z,55.25
2023-02-06T03:07:05.325Z,53.88
2023-02-06T03:09:50.784Z,63.88
2023-02-06T03:12:46.201Z,59.10
2023-02-06T03:15:36.690Z,61.60
2023-02-06T03:18:15.950Z,58.88
2023-02-06T03:20:45.970Z,66.38
2023-02-06T03:23:17.450Z,62.15
2023-02-06T03:25:46.841Z,68.20
2023-02-06T03:28:18.534Z,67.78
2023-02-06T03:30:50.040Z,64.13
2023-02-06T03:33:22.517Z,78.88
2023-02-06T03:35:49.593Z,62.67
2023-02-06T03:38:16.407Z,69.50
2023-02-06T03:40:47.863Z,64.03
2023-02-06T03:43:18.661Z,68.65
2023-02-06T03:45:52.107Z,75.10
2023-02-06T03:48:24.430Z,61.90
2023-02-06T03:50:54.423Z,76.95
2023-02-06T03:53:24.408Z,79.93
2023-02-06T03:55:54.677Z,72.70
2023-02-06T03:58:23.283Z,71.35
2023-02-06T04:00:52.461Z,61.00
2023-02-06T04:03:20.073Z,70.30
2023-02-06T04:05:46.571Z,69.28
2023-02-06T04:08:13.067Z,66.93
2023-02-06T04:10:39.538Z,71.32
2023-02-06T04:13:07.244Z,64.28
2023-02-06T04:15:33.852Z,68.78
2023-02-06T04:18:01.772Z,58.85
2023-02-06T04:20:29.542Z,64.68
2023-02-06T04:22:56.728Z,57.72
2023-02-06T04:25:23.540Z,57.03
2023-02-06T04:27:50.551Z,58.40
2023-02-06T04:30:18.325Z,63.60
2023-02-06T04:32:44.858Z,66.55
2023-02-06T04:35:11.742Z,60.28
2023-02-06T04:37:38.217Z,62.35
2023-02-06T04:40:05.367Z,48.58
2023-02-06T04:42:31.921Z,59.05
2023-02-06T04:44:58.390Z,57.85
2023-02-06T04:47:24.812Z,51.53
2023-02-06T04:49:51.428Z,51.60
2023-02-06T04:52:17.828Z,55.03
2023-02-06T04:54:44.384Z,51.95
2023-02-06T04:57:10.973Z,59.35
2023-02-06T04:59:37.456Z,65.72
2023-02-06T05:02:04.008Z,70.07
2023-02-06T05:04:30.463Z,80.75
2023-02-06T05:06:56.885Z,80.72
2023-02-06T05:09:23.414Z,75.15
2023-02-06T05:11:49.860Z,87.65
2023-02-06T05:14:16.324Z,86.72
2023-02-06T05:16:42.782Z,79.78
2023-02-06T05:19:09.547Z,74.07
2023-02-06T05:21:36.120Z,86.60
2023-02-06T05:24:02.556Z,71.28
2023-02-06T05:26:29.180Z,66.75
2023-02-06T05:28:55.576Z,66.38
2023-02-06T05:31:22.041Z,63.90
2023-02-06T05:33:52.593Z,56.00
2023-02-06T05:36:19.867Z,57.28
2023-02-06T05:38:47.191Z,60.50
2023-02-06T05:41:13.911Z,54.80
2023-02-06T05:43:40.716Z,51.90
2023-02-06T05:46:07.186Z,63.40
2023-02-06T05:48:34.881Z,57.92
2023-02-06T05:51:02.084Z,60.92
2023-02-06T05:53:28.479Z,55.47
2023-02-06T05:55:54.937Z,62.50
2023-02-06T05:58:21.507Z,62.42
2023-02-06T06:00:48.006Z,60.53
2023-02-06T06:03:14.481Z,67.43
2023-02-06T06:05:41.069Z,63.58
2023-02-06T06:08:07.522Z,61.47
2023-02-06T06:10:34.010Z,66.30
2023-02-06T06:13:00.447Z,66.05
2023-02-06T06:15:26.880Z,62.20
2023-02-06T06:17:53.823Z,65.00
2023-02-06T06:20:20.312Z,58.13
2023-02-06T06:22:46.741Z,62.25
2023-02-06T06:25:13.273Z,51.25
2023-02-06T06:27:40.127Z,55.42
2023-02-06T06:30:07.137Z,59.83
2023-02-06T06:32:33.627Z,59.58
2023-02-06T06:35:00.044Z,59.92
2023-02-06T06:37:26.503Z,55.00
2023-02-06T06:39:52.878Z,48.67
2023-02-06T06:42:19.271Z,55.13
2023-02-06T06:44:45.968Z,45.92
2023-02-06T06:47:12.368Z,44.95
2023-02-06T06:49:39.343Z,46.05
2023-02-06T06:52:13.429Z,43.25
2023-02-06T06:54:46.317Z,49.65
2023-02-06T06:57:13.245Z,48.95
2023-02-06T06:59:40.323Z,55.72
2023-02-06T07:02:07.739Z,51.63
2023-02-06T07:04:34.631Z,55.15
2023-02-06T07:07:01.183Z,59.17
2023-02-06T07:09:27.962Z,53.13
2023-02-06T07:11:54.537Z,53.33
2023-02-06T07:14:20.977Z,56.97
2023-02-06T07:16:47.457Z,59.95
2023-02-06T07:19:13.891Z,59.92
2023-02-06T07:21:40.322Z,58.40
2023-02-06T07:24:06.996Z,57.13
2023-02-06T07:26:33.497Z,55.13
2023-02-06T07:28:59.982Z,56.85
2023-02-06T07:31:26.547Z,51.53
2023-02-06T07:33:53.083Z,49.10
2023-02-06T07:36:19.545Z,49.90
2023-02-06T07:38:46.029Z,53.08
2023-02-06T07:41:12.871Z,47.40
2023-02-06T07:43:39.298Z,52.28
2023-02-06T07:46:06.387Z,47.38
2023-02-06T07:48:33.039Z,41.63
2023-02-06T07:51:06.170Z,46.83
2023-02-06T07:53:33.540Z,48.13
2023-02-06T07:56:00.275Z,45.13
2023-02-06T07:58:27.099Z,44.97
2023-02-06T08:00:54.730Z,46.13
2023-02-06T08:03:21.382Z,46.85
2023-02-06T08:05:47.946Z,45.25
2023-02-06T08:08:14.438Z,43.08
2023-02-06T08:10:40.917Z,43.25
2023-02-06T08:13:07.915Z,45.83
2023-02-06T08:15:34.716Z,49.03
2023-02-06T08:18:01.293Z,44.10
2023-02-06T08:20:27.885Z,43.65
2023-02-06T08:22:54.642Z,42.13
2023-02-06T08:25:21.187Z,42.45
2023-02-06T08:27:47.941Z,41.63
2023-02-06T08:30:14.493Z,34.63
2023-02-06T08:32:40.971Z,36.42
2023-02-06T08:35:07.660Z,36.85
2023-02-06T08:37:34.074Z,37.50
2023-02-06T08:40:00.665Z,47.55
2023-02-06T08:42:27.124Z,39.75
2023-02-06T08:44:53.791Z,41.53
2023-02-06T08:47:20.262Z,39.92
2023-02-06T08:49:49.884Z,40.30
2023-02-06T08:52:16.670Z,42.72
2023-02-06T08:54:43.143Z,41.85
2023-02-06T08:57:12.474Z,43.25
2023-02-06T08:59:38.970Z,41.63
2023-02-06T09:02:08.251Z,38.15
2023-02-06T09:04:37.632Z,40.78
2023-02-06T09:07:04.253Z,35.63
2023-02-06T09:09:30.721Z,33.97
2023-02-06T09:12:02.267Z,34.13
2023-02-06T09:14:29.399Z,38.72
2023-02-06T09:16:58.098Z,38.40
2023-02-06T09:19:25.195Z,34.42
2023-02-06T09:21:51.686Z,33.70
2023-02-06T09:24:18.147Z,35.25
2023-02-06T09:26:58.947Z,36.80
2023-02-06T09:29:28.978Z,35.28
2023-02-06T09:31:57.419Z,34.13
2023-02-06T09:34:25.837Z,33.65
2023-02-06T09:36:54.751Z,34.85
2023-02-06T09:39:21.560Z,36.67
2023-02-06T09:41:52.306Z,36.65
2023-02-06T09:44:20.871Z,35.85
2023-02-06T09:46:58.865Z,38.65
2023-02-06T09:49:34.808Z,37.58
2023-02-06T09:52:14.059Z,33.22
2023-02-06T09:54:53.603Z,32.97
2023-02-06T09:57:51.841Z,28.55
2023-02-06T10:00:39.933Z,30.23
2023-02-06T10:03:30.133Z,29.85
2023-02-06T10:06:09.130Z,22.95
2023-02-06T10:08:41.337Z,22.30
2023-02-06T10:11:18.005Z,23.00
2023-02-06T10:13:50.609Z,23.77
2023-02-06T10:16:32.417Z,22.63
2023-02-06T10:19:04.851Z,21.10
2023-02-06T10:21:41.330Z,20.92
2023-02-06T10:24:15.036Z,20.88
2023-02-06T10:26:42.204Z,21.05
2023-02-06T10:29:19.245Z,20.15
2023-02-06T10:31:55.104Z,17.15
2023-02-06T10:34:47.585Z,15.77
2023-02-06T10:37:27.490Z,14.80
2023-02-06T10:40:27.417Z,15.40
2023-02-06T10:43:10.374Z,14.88
2023-02-06T10:45:54.857Z,15.70
2023-02-06T10:48:36.163Z,15.40
2023-02-06T10:51:43.683Z,13.77
2023-02-06T10:54:21.111Z,15.43
2023-02-06T10:56:49.572Z,14.52
2023-02-06T10:59:37.684Z,14.52
2023-02-06T11:02:32.603Z,10.60
2023-02-06T11:05:16.121Z,18.55
2023-02-06T11:07:46.299Z,13.07
2023-02-06T11:10:18.066Z,12.48
2023-02-06T11:12:51.289Z,12.32
2023-02-06T11:15:32.705Z,14.52
2023-02-06T11:18:02.124Z,11.38
2023-02-06T11:20:32.834Z,13.30
2023-02-06T11:23:22.832Z,12.45
2023-02-06T11:26:07.326Z,11.55
2023-02-06T11:28:35.598Z,10.98
2023-02-06T11:31:05.745Z,11.35
2023-02-06T11:33:47.376Z,12.18
2023-02-06T11:39:23.608Z,9.80
2023-02-06T11:42:18.233Z,8.45
2023-02-06T11:44:48.583Z,10.23
2023-02-06T11:47:33.160Z,8.80
2023-02-06T11:50:14.852Z,10.90
2023-02-06T11:52:46.650Z,9.35
2023-02-06T11:55:28.285Z,10.27
2023-02-06T11:58:02.868Z,14.95
2023-02-06T12:00:29.945Z,11.18
2023-02-06T12:02:56.918Z,10.98
2023-02-06T12:05:29.163Z,13.85
2023-02-06T12:08:09.520Z,10.80
2023-02-06T12:10:43.359Z,7.78
2023-02-06T12:13:29.015Z,9.02
2023-02-06T12:16:00.797Z,8.93
2023-02-06T12:18:32.343Z,12.38
2023-02-06T12:21:05.085Z,9.38
2023-02-06T12:23:41.153Z,10.70
2023-02-06T12:26:12.933Z,11.25
2023-02-06T12:29:01.193Z,8.55
2023-02-06T12:31:59.465Z,10.55
2023-02-06T12:34:32.538Z,12.18
2023-02-06T12:37:14.021Z,11.32
2023-02-06T12:39:42.704Z,9.95
2023-02-06T12:42:29.212Z,9.35
2023-02-06T12:45:03.399Z,9.88
2023-02-06T12:47:41.316Z,11.15
2023-02-06T12:50:28.520Z,12.45
2023-02-06T12:53:15.165Z,10.18
2023-02-06T12:55:55.160Z,9.70
2023-02-06T12:58:34.715Z,9.30
2023-02-06T13:01:30.944Z,10.93
2023-02-06T13:04:04.392Z,8.20
2023-02-06T13:06:56.780Z,9.10
2023-02-06T13:09:30.903Z,10.32
2023-02-06T13:12:28.675Z,7.93
2023-02-06T13:14:58.405Z,8.90
2023-02-06T13:17:30.473Z,7.45
2023-02-06T13:20:14.750Z,10.90
2023-02-06T13:22:49.349Z,8.73
2023-02-06T13:25:25.027Z,10.32
2023-02-06T13:28:02.356Z,8.93
2023-02-06T13:30:28.831Z,9.45
2023-02-06T13:33:21.060Z,7.93
2023-02-06T13:36:18.231Z,9.38
2023-02-06T13:38:44.782Z,12.07
2023-02-06T13:41:14.306Z,11.23
2023-02-06T13:43:46.598Z,17.00
2023-02-06T13:46:16.096Z,11.48
2023-02-06T13:49:01.451Z,11.13
2023-02-06T13:51:44.890Z,12.07
2023-02-06T13:54:32.744Z,13.45
2023-02-06T13:57:19.716Z,15.25
2023-02-06T14:00:32.845Z,13.77
2023-02-06T14:03:02.453Z,9.77
2023-02-06T14:05:53.622Z,9.15
2023-02-06T14:08:36.302Z,11.77
2023-02-06T14:11:34.713Z,10.43
2023-02-06T14:14:24.787Z,13.02
2023-02-06T14:17:06.862Z,11.85
2023-02-06T14:20:05.474Z,12.70
2023-02-06T14:22:56.964Z,11.88
2023-02-06T14:25:34.283Z,12.30
2023-02-06T14:28:14.039Z,11.30
2023-02-06T14:30:59.104Z,12.48
2023-02-06T14:33:34.203Z,12.00
2023-02-06T14:36:21.086Z,11.23
2023-02-06T14:39:05.088Z,10.98
2023-02-06T14:41:33.109Z,12.73
2023-02-06T14:43:59.676Z,11.30
2023-02-06T14:46:27.350Z,15.10
2023-02-06T14:48:56.887Z,12.93
2023-02-06T14:51:25.542Z,14.10
2023-02-06T14:53:58.290Z,14.23
2023-02-06T14:56:31.537Z,13.95
2023-02-06T14:59:12.878Z,16.98
2023-02-06T15:02:26.874Z,15.85
2023-02-06T15:04:54.023Z,17.85
2023-02-06T15:07:29.007Z,15.10
2023-02-06T15:12:29.125Z,16.98
2023-02-06T15:15:15.443Z,21.88
2023-02-06T15:17:41.956Z,13.02
2023-02-06T15:20:21.301Z,12.98
2023-02-06T15:22:47.996Z,12.55
2023-02-06T15:25:37.786Z,12.75
2023-02-06T15:28:09.939Z,12.32
2023-02-06T15:30:37.654Z,13.63
2023-02-06T15:33:10.262Z,14.95
2023-02-06T15:35:40.424Z,15.05
2023-02-06T15:38:11.502Z,12.07
2023-02-06T15:40:42.117Z,16.42
2023-02-06T15:43:15.130Z,15.30
2023-02-06T15:45:44.081Z,14.63
2023-02-06T15:48:17.772Z,16.48
2023-02-06T15:51:02.121Z,11.63
2023-02-06T15:53:38.228Z,13.52
2023-02-06T15:56:07.850Z,11.15
2023-02-06T15:58:35.319Z,9.98
2023-02-06T16:01:03.061Z,11.68
2023-02-06T16:03:31.555Z,12.57
2023-02-06T16:05:58.156Z,11.07
2023-02-06T16:08:35.142Z,10.68
2023-02-06T16:11:26.238Z,13.60
2023-02-06T16:13:53.423Z,9.43
2023-02-06T16:16:23.028Z,14.60
2023-02-06T16:18:52.171Z,11.13
2023-02-06T16:21:18.634Z,11.45
2023-02-06T16:24:09.911Z,11.38
2023-02-06T16:26:47.963Z,8.05
2023-02-06T16:29:29.287Z,11.63
2023-02-06T16:32:02.536Z,8.15
2023-02-06T16:34:44.081Z,8.88
2023-02-06T16:37:16.628Z,10.85
2023-02-06T16:39:44.260Z,8.40
2023-02-06T16:42:22.112Z,9.65
2023-02-06T16:44:52.141Z,8.00
2023-02-06T16:47:20.471Z,10.18
2023-02-06T16:49:51.008Z,9.27
2023-02-06T16:52:23.754Z,9.18
2023-02-06T16:54:50.467Z,11.25
2023-02-06T16:57:22.798Z,9.43
2023-02-06T16:59:49.476Z,10.50
2023-02-06T17:02:16.135Z,12.18
2023-02-06T17:04:43.134Z,10.70
2023-02-06T17:07:13.765Z,9.32
2023-02-06T17:09:40.800Z,23.10
2023-02-06T17:12:12.060Z,10.95
2023-02-06T17:14:38.466Z,9.50
2023-02-06T17:17:04.959Z,9.93
2023-02-06T17:19:31.377Z,8.80
2023-02-06T17:21:57.909Z,11.38
2023-02-06T17:24:24.390Z,10.52
2023-02-06T17:26:51.046Z,13.95
2023-02-06T17:29:17.556Z,9.02
2023-02-06T17:31:44.067Z,8.43
2023-02-06T17:34:10.608Z,7.97
2023-02-06T17:36:41.147Z,14.32
2023-02-06T17:39:07.614Z,15.68
2023-02-06T17:41:35.473Z,10.05
2023-02-06T17:44:02.160Z,12.13
2023-02-06T17:46:28.686Z,11.70
2023-02-06T17:48:55.215Z,12.25
2023-02-06T17:51:21.743Z,10.38
2023-02-06T17:53:48.195Z,11.23
2023-02-06T17:56:14.690Z,11.55
2023-02-06T17:58:42.942Z,14.85
2023-02-06T18:03:40.836Z,17.40
2023-02-06T18:06:07.953Z,17.00
2023-02-06T18:08:34.726Z,16.98
2023-02-06T18:11:01.234Z,13.60
2023-02-06T18:13:28.534Z,11.63
2023-02-06T18:15:57.137Z,11.18
2023-02-06T18:18:24.735Z,12.25
2023-02-06T18:20:52.217Z,12.35
2023-02-06T18:23:19.508Z,11.35
2023-02-06T18:25:45.955Z,9.52
2023-02-06T18:28:16.514Z,11.35
2023-02-06T18:30:43.119Z,12.07
2023-02-06T18:33:12.719Z,12.02
2023-02-06T18:35:41.239Z,14.90
2023-02-06T18:38:10.106Z,14.57
2023-02-06T18:40:41.669Z,10.82
2023-02-06T18:43:08.165Z,13.95
2023-02-06T18:45:37.405Z,11.10
2023-02-06T18:48:06.212Z,10.40
2023-02-06T18:50:33.843Z,12.93
2023-02-06T18:53:00.409Z,12.65
2023-02-06T18:55:27.123Z,14.57
2023-02-06T18:57:54.250Z,13.70
2023-02-06T19:00:23.153Z,15.48
2023-02-06T19:02:50.561Z,11.20
2023-02-06T19:05:17.077Z,13.25
2023-02-06T19:07:43.540Z,13.85
2023-02-06T19:10:12.929Z,11.85
2023-02-06T19:12:40.280Z,11.70
2023-02-06T19:15:07.222Z,11.27
2023-02-06T19:17:34.164Z,11.38
2023-02-06T19:20:00.730Z,13.02
2023-02-06T19:22:27.513Z,12.00
2023-02-06T19:24:54.389Z,11.32
2023-02-06T19:27:21.405Z,12.15
2023-02-06T19:29:48.255Z,11.95
2023-02-06T19:32:14.777Z,9.05
2023-02-06T19:34:41.971Z,10.63
2023-02-06T19:37:10.065Z,12.20
2023-02-06T19:39:40.161Z,9.82
2023-02-06T19:42:09.825Z,9.00
2023-02-06T19:44:36.909Z,10.48
2023-02-06T19:47:03.802Z,11.60
2023-02-06T19:49:30.848Z,15.68
2023-02-06T19:51:57.424Z,12.80
2023-02-06T19:54:23.866Z,11.65
2023-02-06T19:56:50.322Z,12.73
2023-02-06T19:59:20.363Z,11.70
2023-02-06T20:01:55.492Z,12.88
2023-02-06T20:04:25.274Z,12.77
2023-02-06T20:06:52.389Z,11.68
2023-02-06T20:09:20.787Z,12.77
2023-02-06T20:11:49.116Z,11.63
2023-02-06T20:16:43.145Z,15.18
2023-02-06T20:19:18.586Z,12.13
2023-02-06T20:21:48.006Z,13.55
2023-02-06T20:24:20.715Z,12.45
2023-02-06T20:26:48.767Z,12.57
2023-02-06T20:29:36.792Z,10.15
2023-02-06T20:32:04.612Z,13.80
2023-02-06T20:34:31.209Z,15.32
2023-02-06T20:36:57.903Z,14.00
2023-02-06T20:39:25.391Z,10.50
2023-02-06T20:41:52.447Z,10.88
2023-02-06T20:44:19.854Z,15.82
2023-02-06T20:46:47.110Z,14.27
2023-02-06T20:49:19.414Z,13.35
2023-02-06T20:51:46.534Z,14.85
2023-02-06T20:54:13.013Z,15.32
2023-02-06T20:56:40.105Z,15.15
2023-02-06T20:59:07.923Z,16.63
2023-02-06T21:01:34.936Z,14.32
2023-02-06T21:04:06.655Z,16.88
2023-02-06T21:06:35.486Z,14.55
2023-02-06T21:09:03.533Z,15.75
2023-02-06T21:11:39.920Z,17.13
2023-02-06T21:14:07.006Z,13.75
2023-02-06T21:16:34.829Z,14.80
2023-02-06T21:19:02.090Z,14.15
2023-02-06T21:21:28.972Z,19.83
2023-02-06T21:23:58.724Z,14.52
2023-02-06T21:26:26.066Z,14.68
2023-02-06T21:28:52.774Z,14.07
2023-02-06T21:31:23.378Z,14.60
2023-02-06T21:33:51.376Z,17.52
2023-02-06T21:36:17.980Z,17.27
2023-02-06T21:38:44.674Z,17.02
2023-02-06T21:41:14.919Z,18.45
2023-02-06T21:43:41.545Z,15.52
2023-02-06T21:46:09.639Z,14.52
2023-02-06T21:48:36.476Z,16.95
2023-02-06T21:51:21.507Z,15.73
2023-02-06T21:53:47.990Z,17.52
2023-02-06T21:56:20.399Z,17.77
2023-02-06T21:58:48.368Z,18.15
2023-02-06T22:01:26.112Z,16.30
2023-02-06T22:03:53.087Z,21.27
2023-02-06T22:06:20.237Z,20.23
2023-02-06T22:08:51.433Z,20.48
2023-02-06T22:11:25.182Z,18.70
2023-02-06T22:13:52.784Z,17.25
2023-02-06T22:16:21.412Z,18.38
2023-02-06T22:18:50.111Z,21.33
2023-02-06T22:21:19.295Z,19.40
2023-02-06T22:23:47.053Z,15.25
2023-02-06T22:26:15.590Z,19.05
2023-02-06T22:28:42.627Z,17.88
2023-02-06T22:31:18.805Z,17.33
2023-02-06T22:33:45.675Z,21.20
2023-02-06T22:36:16.749Z,19.08
2023-02-06T22:38:44.938Z,20.95
2023-02-06T22:41:15.614Z,22.60
2023-02-06T22:43:43.088Z,18.85
2023-02-06T22:46:09.798Z,20.17
2023-02-06T22:48:36.797Z,21.15
2023-02-06T22:51:08.916Z,27.17
2023-02-06T22:53:36.918Z,20.58
2023-02-06T22:56:31.597Z,22.10
2023-02-06T22:59:06.038Z,22.40
2023-02-06T23:01:38.621Z,22.38
2023-02-06T23:04:10.288Z,22.95
2023-02-06T23:06:37.300Z,21.20
2023-02-06T23:09:05.807Z,22.02
2023-02-06T23:11:33.079Z,19.95
2023-02-06T23:14:02.525Z,20.23
2023-02-06T23:16:30.305Z,22.40
2023-02-06T23:18:57.102Z,21.35
2023-02-06T23:21:25.311Z,20.15
2023-02-06T23:23:53.660Z,17.77
2023-02-06T23:28:46.938Z,18.80
2023-02-06T23:31:13.764Z,14.05
2023-02-06T23:33:40.924Z,14.23
2023-02-06T23:36:13.308Z,11.32
2023-02-06T23:38:39.964Z,11.07
2023-02-06T23:41:15.755Z,10.63
2023-02-06T23:43:42.833Z,9.90
2023-02-06T23:46:12.366Z,11.50
2023-02-06T23:48:39.552Z,10.45
2023-02-06T23:51:06.412Z,11.63
2023-02-06T23:53:32.846Z,9.00
2023-02-06T23:55:59.476Z,9.75
2023-02-06T23:58:26.145Z,10.93
